createdAt,value
2018-05-12T00:01:01.522Z,99972.52
2018-05-12T00:03:30.781Z,99963.25
2018-05-12T00:06:00.031Z,99963.00
2018-05-12T00:08:29.229Z,99964.67
2018-05-12T00:10:58.546Z,99967.05
2018-05-12T00:13:28.499Z,99963.95
2018-05-12T00:15:57.713Z,99962.42
2018-05-12T00:18:26.951Z,99964.55
2018-05-12T00:20:56.506Z,99959.84
2018-05-12T00:23:25.701Z,99961.20
2018-05-12T00:25:54.979Z,99965.41
2018-05-12T00:28:24.246Z,99958.56
2018-05-12T00:30:53.477Z,99954.66
2018-05-12T00:33:23.509Z,99957.19
2018-05-12T00:35:52.847Z,99952.75
2018-05-12T00:38:22.046Z,99955.37
2018-05-12T00:40:51.328Z,99951.08
2018-05-12T00:43:21.361Z,99951.53
2018-05-12T00:45:50.650Z,99949.71
2018-05-12T00:48:19.838Z,99941.38
2018-05-12T00:50:49.083Z,99945.75
2018-05-12T00:53:19.136Z,99937.75
2018-05-12T00:55:49.125Z,99934.16
2018-05-12T00:58:19.106Z,99932.67
2018-05-12T01:00:48.320Z,99926.86
2018-05-12T01:03:18.368Z,99927.95
2018-05-12T01:05:48.360Z,99933.70
2018-05-12T01:08:17.597Z,99925.80
2018-05-12T01:10:46.878Z,99923.48
2018-05-12T01:13:16.086Z,99928.30
2018-05-12T01:15:45.333Z,99927.63
2018-05-12T01:18:14.577Z,99921.70
2018-05-12T01:20:44.545Z,99924.86
2018-05-12T01:23:13.766Z,99913.25
2018-05-12T01:25:43.747Z,99920.58
2018-05-12T01:28:12.977Z,99907.11
2018-05-12T01:30:42.171Z,99912.58
2018-05-12T01:33:11.425Z,99899.31
2018-05-12T01:35:40.813Z,99902.69
2018-05-12T01:38:10.058Z,99905.16
2018-05-12T01:40:39.300Z,99909.42
2018-05-12T01:43:08.541Z,99904.52
2018-05-12T01:45:37.747Z,99911.00
2018-05-12T01:48:07.171Z,99905.34
2018-05-12T01:50:36.586Z,99902.39
2018-05-12T01:53:05.784Z,99914.50
2018-05-12T01:55:35.748Z,99918.08
2018-05-12T01:58:04.958Z,99910.20
2018-05-12T02:00:34.450Z,99914.22
2018-05-12T02:03:03.615Z,99913.19
2018-05-12T02:05:32.845Z,99914.66
2018-05-12T02:08:02.061Z,99906.62
2018-05-12T02:10:31.280Z,99912.25
2018-05-12T02:13:00.484Z,99906.66
2018-05-12T02:15:29.726Z,99907.63
2018-05-12T02:17:58.945Z,99904.11
2018-05-12T02:20:28.188Z,99905.29
2018-05-12T02:22:57.405Z,99913.31
2018-05-12T02:25:26.708Z,99914.02
2018-05-12T02:27:55.902Z,99909.70
2018-05-12T02:30:25.207Z,99910.45
2018-05-12T02:32:54.502Z,99917.92
2018-05-12T02:35:23.698Z,99920.38
2018-05-12T02:37:52.934Z,99913.19
2018-05-12T02:40:22.364Z,99913.95
2018-05-12T02:42:52.378Z,99908.06
2018-05-12T02:45:21.681Z,99906.03
2018-05-12T02:47:51.151Z,99905.95
2018-05-12T02:50:20.370Z,99908.97
2018-05-12T02:52:49.737Z,99910.56
2018-05-12T02:55:19.129Z,99902.80
2018-05-12T02:57:48.439Z,99905.28
2018-05-12T03:00:17.639Z,99897.38
2018-05-12T03:02:46.891Z,99901.61
2018-05-12T03:05:16.123Z,99902.66
2018-05-12T03:07:45.353Z,99904.98
2018-05-12T03:10:14.610Z,99900.92
2018-05-12T03:12:43.861Z,99897.61
2018-05-12T03:15:13.079Z,99900.54
2018-05-12T03:17:42.311Z,99898.05
2018-05-12T03:20:11.705Z,99897.67
2018-05-12T03:22:41.253Z,99896.42
2018-05-12T03:25:10.505Z,99895.55
2018-05-12T03:27:39.727Z,99900.00
2018-05-12T03:30:08.990Z,99888.87
2018-05-12T03:32:38.213Z,99896.23
2018-05-12T03:35:07.438Z,99902.14
2018-05-12T03:37:36.789Z,99899.11
2018-05-12T03:40:05.998Z,99898.83
2018-05-12T03:42:35.203Z,99894.70
2018-05-12T03:45:04.968Z,99897.55
2018-05-12T03:47:34.948Z,99892.18
2018-05-12T03:50:04.151Z,99894.55
2018-05-12T03:52:33.353Z,99894.20
2018-05-12T03:55:02.573Z,99896.42
2018-05-12T03:57:32.652Z,99896.67
2018-05-12T04:00:01.829Z,99890.65
2018-05-12T04:02:31.778Z,99902.39
2018-05-12T04:05:18.577Z,99909.65
2018-05-12T04:08:05.415Z,99903.80
2018-05-12T04:24:06.863Z,99913.08
2018-05-12T04:26:36.069Z,99908.81
2018-05-12T04:29:05.482Z,99906.61
2018-05-12T04:31:34.666Z,99909.08
2018-05-12T04:34:04.272Z,99903.93
2018-05-12T04:36:33.533Z,99908.94
2018-05-12T04:39:02.914Z,99911.02
2018-05-12T04:41:33.072Z,99911.19
2018-05-12T04:44:02.311Z,99910.20
2018-05-12T04:46:32.265Z,99904.70
2018-05-12T04:49:01.478Z,99904.17
2018-05-12T04:51:30.701Z,99909.28
2018-05-12T04:54:00.693Z,99900.90
2018-05-12T04:56:30.677Z,99900.48
2018-05-12T04:58:59.932Z,99907.69
2018-05-12T05:01:29.925Z,99909.76
2018-05-12T05:03:59.213Z,99906.05
2018-05-12T05:06:28.537Z,99907.04
2018-05-12T05:08:57.843Z,99905.00
2018-05-12T05:11:27.821Z,99907.06
2018-05-12T05:13:57.056Z,99907.97
2018-05-12T05:16:27.056Z,99901.48
2018-05-12T05:18:56.303Z,99905.66
2018-05-12T05:21:25.557Z,99907.55
2018-05-12T05:23:54.978Z,99909.63
2018-05-12T05:26:24.309Z,99916.65
2018-05-12T05:28:53.506Z,99917.23
2018-05-12T05:31:22.739Z,99913.62
2018-05-12T05:33:52.018Z,99916.20
2018-05-12T05:36:21.465Z,99916.89
2018-05-12T05:38:51.487Z,99915.88
2018-05-12T05:41:21.437Z,99910.81
2018-05-12T05:43:50.802Z,99918.70
2018-05-12T05:46:20.852Z,99915.64
2018-05-12T05:48:50.123Z,99916.20
2018-05-12T05:51:20.201Z,99920.57
2018-05-12T05:53:49.452Z,99913.93
2018-05-12T05:56:18.695Z,99917.80
2018-05-12T05:58:47.902Z,99919.33
2018-05-12T06:01:17.261Z,99920.95
2018-05-12T06:03:46.584Z,99920.95
2018-05-12T06:06:15.842Z,99924.69
2018-05-12T06:08:45.058Z,99922.34
2018-05-12T06:11:14.470Z,99919.69
2018-05-12T06:13:43.690Z,99918.05
2018-05-12T06:16:12.931Z,99911.69
2018-05-12T06:18:42.162Z,99915.69
2018-05-12T06:21:11.417Z,99914.11
2018-05-12T06:23:40.612Z,99912.98
2018-05-12T06:26:10.724Z,99918.92
2018-05-12T06:28:40.712Z,99922.59
2018-05-12T06:31:09.942Z,99920.78
2018-05-12T06:33:40.809Z,99926.30
2018-05-12T06:36:10.326Z,99922.56
2018-05-12T06:38:40.286Z,99920.80
2018-05-12T06:41:09.514Z,99927.72
2018-05-12T06:43:39.503Z,99925.59
2018-05-12T06:46:08.866Z,99920.03
2018-05-12T06:48:38.112Z,99928.71
2018-05-12T06:51:08.119Z,99928.58
2018-05-12T06:53:37.462Z,99932.09
2018-05-12T06:56:06.692Z,99928.58
2018-05-12T06:58:35.908Z,99927.38
2018-05-12T07:01:05.197Z,99935.38
2018-05-12T07:03:34.463Z,99938.08
2018-05-12T07:06:03.672Z,99929.72
2018-05-12T07:08:32.935Z,99937.16
2018-05-12T07:11:04.083Z,99934.23
2018-05-12T07:13:35.207Z,99935.72
2018-05-12T07:16:05.227Z,99930.03
2018-05-12T07:18:34.474Z,99934.28
2018-05-12T07:23:39.062Z,99933.55
2018-05-12T07:26:09.221Z,99935.17
2018-05-12T07:28:39.188Z,99925.60
2018-05-12T07:31:09.218Z,99924.08
2018-05-12T07:33:39.263Z,99928.42
2018-05-12T07:36:09.221Z,99930.44
2018-05-12T07:38:38.445Z,99930.05
2018-05-12T07:41:08.432Z,99927.52
2018-05-12T07:43:37.637Z,99930.83
2018-05-12T07:46:06.901Z,99934.98
2018-05-12T07:48:36.133Z,99927.88
2018-05-12T07:51:05.403Z,99935.56
2018-05-12T07:53:34.684Z,99933.41
2018-05-12T07:56:04.665Z,99923.09
2018-05-12T07:58:34.631Z,99927.56
2018-05-12T08:01:03.858Z,99920.00
2018-05-12T08:03:33.905Z,99925.53
2018-05-12T08:06:03.055Z,99924.55
2018-05-12T08:08:32.273Z,99919.19
2018-05-12T08:11:01.482Z,99918.33
2018-05-12T08:13:31.477Z,99924.34
2018-05-12T08:16:00.831Z,99915.72
2018-05-12T08:18:30.136Z,99916.56
2018-05-12T08:21:00.113Z,99913.58
2018-05-12T08:23:30.096Z,99912.80
2018-05-12T08:25:59.336Z,99917.44
2018-05-12T08:28:29.334Z,99914.81
2018-05-12T08:30:58.569Z,99906.27
2018-05-12T08:33:28.561Z,99906.86
2018-05-12T08:35:58.602Z,99909.27
2018-05-12T08:38:27.820Z,99906.70
2018-05-12T08:40:57.040Z,99904.34
2018-05-12T08:43:26.263Z,99905.17
2018-05-12T08:45:56.266Z,99901.94
2018-05-12T08:48:25.590Z,99903.34
2018-05-12T08:50:54.830Z,99907.73
2018-05-12T08:53:24.054Z,99899.57
2018-05-12T08:55:53.264Z,99897.98
2018-05-12T08:58:22.539Z,99895.66
2018-05-12T09:00:53.799Z,99899.19
2018-05-12T09:03:23.259Z,99904.91
2018-05-12T09:05:52.468Z,99896.59
2018-05-12T09:08:21.716Z,99896.63
2018-05-12T09:10:50.895Z,99896.39
2018-05-12T09:13:20.144Z,99894.45
2018-05-12T09:15:49.353Z,99896.27
2018-05-12T09:18:18.812Z,99886.42
2018-05-12T09:20:48.826Z,99897.25
2018-05-12T09:23:18.278Z,99891.48
2018-05-12T09:25:47.504Z,99896.55
2018-05-12T09:28:16.762Z,99887.93
2018-05-12T09:30:47.878Z,99887.08
2018-05-12T09:33:17.892Z,99881.59
2018-05-12T09:35:48.046Z,99885.33
2018-05-12T09:38:17.272Z,99879.57
2018-05-12T09:40:46.557Z,99877.50
2018-05-12T09:43:15.807Z,99880.13
2018-05-12T09:45:45.091Z,99880.23
2018-05-12T09:48:14.418Z,99871.20
2018-05-12T09:50:43.701Z,99871.84
2018-05-12T09:53:13.726Z,99864.98
2018-05-12T09:55:42.970Z,99860.86
2018-05-12T09:58:12.805Z,99864.11
2018-05-12T10:00:42.069Z,99867.09
2018-05-12T10:03:11.341Z,99858.13
2018-05-12T10:05:41.314Z,99860.35
2018-05-12T10:08:10.513Z,99855.48
2018-05-12T10:10:39.853Z,99852.20
2018-05-12T10:13:09.206Z,99857.52
2018-05-12T10:15:38.500Z,99856.00
2018-05-12T10:18:08.463Z,99853.51
2018-05-12T10:20:38.465Z,99850.62
2018-05-12T10:23:07.691Z,99848.25
2018-05-12T10:25:37.030Z,99847.27
2018-05-12T10:28:06.256Z,99841.33
2018-05-12T10:30:35.726Z,99840.36
2018-05-12T10:33:04.946Z,99843.06
2018-05-12T10:35:34.555Z,99833.75
2018-05-12T10:38:03.883Z,99838.14
2018-05-12T10:40:33.226Z,99833.56
2018-05-12T10:43:02.510Z,99829.78
2018-05-12T10:45:31.808Z,99818.50
2018-05-12T10:48:01.195Z,99815.02
2018-05-12T10:50:32.812Z,99817.53
2018-05-12T10:53:02.073Z,99811.31
2018-05-12T10:55:31.317Z,99810.33
2018-05-12T10:58:00.682Z,99813.34
2018-05-12T11:00:30.012Z,99801.23
2018-05-12T11:03:00.763Z,99793.52
2018-05-12T11:05:30.762Z,99791.28
2018-05-12T11:08:01.490Z,99796.35
2018-05-12T11:10:30.884Z,99785.88
2018-05-12T11:13:01.327Z,99790.84
2018-05-12T11:15:30.558Z,99791.42
2018-05-12T11:18:00.588Z,99786.34
2018-05-12T11:20:29.808Z,99783.12
2018-05-12T11:22:59.082Z,99781.83
2018-05-12T11:25:28.404Z,99772.48
2018-05-12T11:27:57.629Z,99780.05
2018-05-12T11:30:26.828Z,99772.55
2018-05-12T11:32:56.096Z,99770.58
2018-05-12T11:35:25.452Z,99768.28
2018-05-12T11:37:54.699Z,99762.50
2018-05-12T11:40:24.303Z,99756.73
2018-05-12T11:42:54.383Z,99753.06
2018-05-12T11:45:24.422Z,99752.25
2018-05-12T11:47:53.672Z,99752.77
2018-05-12T11:50:23.727Z,99736.34
2018-05-12T11:52:52.932Z,99733.55
2018-05-12T11:55:22.196Z,99742.24
2018-05-12T11:57:51.375Z,99733.15
2018-05-12T12:00:20.577Z,99739.17
2018-05-12T12:02:49.819Z,99730.70
2018-05-12T12:05:19.027Z,99734.47
2018-05-12T12:07:48.274Z,99731.94
2018-05-12T12:10:17.473Z,99729.69
2018-05-12T12:12:46.693Z,99732.55
2018-05-12T12:15:16.690Z,99732.84
2018-05-12T12:17:47.405Z,99728.78
2018-05-12T12:20:16.789Z,99727.79
2018-05-12T12:22:46.005Z,99721.77
2018-05-12T12:25:16.169Z,99716.20
2018-05-12T12:27:45.547Z,99716.63
2018-05-12T12:30:15.537Z,99710.56
2018-05-12T12:32:44.775Z,99714.31
2018-05-12T12:35:14.216Z,99716.52
2018-05-12T12:37:43.582Z,99711.40
2018-05-12T12:40:12.857Z,99709.66
2018-05-12T12:42:42.937Z,99714.30
2018-05-12T12:45:12.181Z,99708.61
2018-05-12T12:47:41.374Z,99703.41
2018-05-12T12:50:11.461Z,99712.52
2018-05-12T12:52:40.669Z,99705.75
2018-05-12T12:55:09.888Z,99704.42
2018-05-12T12:57:39.972Z,99700.80
2018-05-12T13:00:09.181Z,99704.11
2018-05-12T13:02:38.405Z,99700.85
2018-05-12T13:05:09.306Z,99697.13
2018-05-12T13:07:38.926Z,99696.53
2018-05-12T13:10:08.158Z,99694.19
2018-05-12T13:12:38.143Z,99686.00
2018-05-12T13:15:07.475Z,99687.11
2018-05-12T13:17:37.488Z,99686.48
2018-05-12T13:20:07.531Z,99687.05
2018-05-12T13:22:36.812Z,99675.46
2018-05-12T13:25:06.782Z,99677.63
2018-05-12T13:27:36.027Z,99665.80
2018-05-12T13:30:06.008Z,99662.22
2018-05-12T13:32:35.410Z,99651.42
2018-05-12T13:35:04.677Z,99658.08
2018-05-12T13:37:33.910Z,99654.27
2018-05-12T13:40:03.163Z,99651.22
2018-05-12T13:42:32.351Z,99652.64
2018-05-12T13:45:01.582Z,99651.57
2018-05-12T13:47:30.784Z,99644.70
2018-05-12T13:50:00.044Z,99647.02
2018-05-12T13:52:29.349Z,99645.61
2018-05-12T13:54:58.694Z,99631.83
2018-05-12T13:57:27.971Z,99626.00
2018-05-12T13:59:57.403Z,99632.54
2018-05-12T14:02:26.610Z,99626.61
2018-05-12T14:04:56.695Z,99627.11
2018-05-12T14:07:25.984Z,99626.47
2018-05-12T14:09:55.922Z,99628.55
2018-05-12T14:12:26.656Z,99629.41
2018-05-12T14:14:56.264Z,99622.83
2018-05-12T14:17:25.508Z,99630.54
2018-05-12T14:19:54.784Z,99623.19
2018-05-12T14:22:24.214Z,99624.02
2018-05-12T14:24:53.482Z,99620.85
2018-05-12T14:27:23.562Z,99619.15
2018-05-12T14:29:52.773Z,99609.55
2018-05-12T14:32:22.044Z,99608.25
2018-05-12T14:34:51.278Z,99619.93
2018-05-12T14:37:21.413Z,99608.28
2018-05-12T14:39:51.435Z,99610.70
2018-05-12T14:42:21.450Z,99606.22
2018-05-12T14:44:50.654Z,99602.92
2018-05-12T14:47:20.629Z,99602.92
2018-05-12T14:49:49.829Z,99601.46
2018-05-12T14:52:19.106Z,99597.41
2018-05-12T14:54:48.392Z,99600.53
2018-05-12T14:57:18.214Z,99595.14
2018-05-12T14:59:47.479Z,99601.99
2018-05-12T15:02:16.734Z,99594.53
2018-05-12T15:04:45.938Z,99596.20
2018-05-12T15:07:15.205Z,99590.44
2018-05-12T15:09:44.431Z,99593.15
2018-05-12T15:12:13.637Z,99587.82
2018-05-12T15:14:42.878Z,99588.35
2018-05-12T15:17:12.088Z,99578.30
2018-05-12T15:19:41.318Z,99578.66
2018-05-12T15:22:10.555Z,99578.12
2018-05-12T15:24:40.575Z,99580.97
2018-05-12T15:27:10.623Z,99574.26
2018-05-12T15:29:40.024Z,99562.79
2018-05-12T15:32:09.246Z,99566.55
2018-05-12T15:34:38.445Z,99565.25
2018-05-12T15:37:07.717Z,99562.84
2018-05-12T15:39:36.923Z,99555.66
2018-05-12T15:42:06.127Z,99555.79
2018-05-12T15:44:35.441Z,99553.91
2018-05-12T15:47:04.638Z,99549.33
2018-05-12T15:49:33.882Z,99540.45
2018-05-12T15:52:03.162Z,99538.63
2018-05-12T15:54:33.166Z,99539.38
2018-05-12T15:57:02.489Z,99541.14
2018-05-12T15:59:31.733Z,99538.38
2018-05-12T16:02:00.947Z,99536.47
2018-05-12T16:04:30.166Z,99532.10
2018-05-12T16:07:00.208Z,99534.61
2018-05-12T16:09:30.394Z,99525.81
2018-05-12T16:11:59.665Z,99529.59
2018-05-12T16:14:28.964Z,99524.05
2018-05-12T16:16:58.192Z,99520.31
2018-05-12T16:19:27.398Z,99517.51
2018-05-12T16:21:57.408Z,99520.87
2018-05-12T16:24:26.632Z,99519.92
2018-05-12T16:26:56.645Z,99516.92
2018-05-12T16:29:26.070Z,99517.25
2018-05-12T16:31:55.302Z,99521.73
2018-05-12T16:34:24.528Z,99514.81
2018-05-12T16:36:53.878Z,99508.81
2018-05-12T16:39:23.092Z,99505.92
2018-05-12T16:41:52.286Z,99512.03
2018-05-12T16:44:21.580Z,99510.72
2018-05-12T16:46:50.807Z,99504.66
2018-05-12T16:49:20.029Z,99503.52
2018-05-12T16:51:49.359Z,99496.42
2018-05-12T16:54:19.322Z,99493.48
2018-05-12T16:56:48.534Z,99494.34
2018-05-12T16:59:18.616Z,99492.61
2018-05-12T17:01:47.877Z,99492.81
2018-05-12T17:04:17.129Z,99494.34
2018-05-12T17:06:46.404Z,99484.00
2018-05-12T17:09:15.754Z,99486.00
2018-05-12T17:11:45.785Z,99481.23
2018-05-12T17:14:15.015Z,99483.84
2018-05-12T17:16:44.287Z,99481.53
2018-05-12T17:19:14.447Z,99473.27
2018-05-12T17:21:43.654Z,99473.38
2018-05-12T17:24:12.973Z,99467.83
2018-05-12T17:26:42.183Z,99474.80
2018-05-12T17:29:12.241Z,99471.89
2018-05-12T17:31:41.457Z,99464.02
2018-05-12T17:34:10.754Z,99464.69
2018-05-12T17:36:39.916Z,99462.56
2018-05-12T17:39:09.157Z,99464.09
2018-05-12T17:41:38.387Z,99458.63
2018-05-12T17:44:08.489Z,99462.60
2018-05-12T17:46:37.833Z,99461.53
2018-05-12T17:49:07.094Z,99455.86
2018-05-12T17:51:36.985Z,99457.45
2018-05-12T17:54:06.298Z,99456.95
2018-05-12T17:56:36.058Z,99447.91
2018-05-12T17:59:05.363Z,99454.11
2018-05-12T18:01:34.588Z,99449.07
2018-05-12T18:04:03.874Z,99444.35
2018-05-12T18:06:33.107Z,99441.41
2018-05-12T18:09:02.341Z,99434.35
2018-05-12T18:11:31.609Z,99435.63
2018-05-12T18:14:00.854Z,99436.89
2018-05-12T18:16:30.115Z,99434.34
2018-05-12T18:19:00.133Z,99428.05
2018-05-12T18:21:30.126Z,99435.03
2018-05-12T18:23:59.336Z,99431.94
2018-05-12T18:26:28.562Z,99432.23
2018-05-12T18:28:57.812Z,99428.75
2018-05-12T18:31:27.063Z,99432.59
2018-05-12T18:33:56.291Z,99431.69
2018-05-12T18:36:25.684Z,99423.06
2018-05-12T18:38:54.890Z,99429.23
2018-05-12T18:41:24.113Z,99430.49
2018-05-12T18:43:53.305Z,99429.19
2018-05-12T18:46:22.574Z,99432.55
2018-05-12T18:48:51.865Z,99423.94
2018-05-12T18:51:21.815Z,99423.60
2018-05-12T18:53:51.053Z,99425.61
2018-05-12T18:56:22.037Z,99421.67
2018-05-12T18:58:51.259Z,99426.85
2018-05-12T19:01:20.525Z,99431.61
2018-05-12T19:03:49.769Z,99433.80
2018-05-12T19:06:18.991Z,99433.59
2018-05-12T19:08:49.961Z,99433.43
2018-05-12T19:11:19.163Z,99435.25
2018-05-12T19:13:48.395Z,99433.68
2018-05-12T19:16:18.409Z,99442.17
2018-05-12T19:18:47.678Z,99440.17
2018-05-12T19:21:16.938Z,99445.31
2018-05-12T19:23:46.186Z,99440.00
2018-05-12T19:26:15.453Z,99438.66
2018-05-12T19:28:44.752Z,99441.10
2018-05-12T19:31:14.149Z,99445.05
2018-05-12T19:33:43.418Z,99452.99
2018-05-12T19:36:13.402Z,99447.29
2018-05-12T19:38:42.630Z,99443.78
2018-05-12T19:41:11.832Z,99445.18
2018-05-12T19:43:41.161Z,99446.19
2018-05-12T19:46:10.329Z,99439.89
2018-05-12T19:48:40.335Z,99443.44
2018-05-12T19:51:10.400Z,99448.78
2018-05-12T19:53:39.612Z,99442.92
2018-05-12T19:56:09.858Z,99440.60
2018-05-12T19:58:39.125Z,99441.22
2018-05-12T20:01:08.391Z,99445.95
2018-05-12T20:03:37.616Z,99441.45
2018-05-12T20:06:06.850Z,99444.83
2018-05-12T20:08:36.133Z,99448.98
2018-05-12T20:11:06.130Z,99443.13
2018-05-12T20:13:35.361Z,99445.34
2018-05-12T20:16:04.655Z,99444.37
2018-05-12T20:18:33.818Z,99440.06
2018-05-12T20:21:03.027Z,99446.98
2018-05-12T20:23:32.267Z,99443.68
2018-05-12T20:26:01.511Z,99448.42
2018-05-12T20:28:30.807Z,99441.33
2018-05-12T20:31:00.032Z,99445.47
2018-05-12T20:33:29.253Z,99446.67
2018-05-12T20:35:58.496Z,99445.89
2018-05-12T20:38:27.746Z,99446.49
2018-05-12T20:40:56.986Z,99450.25
2018-05-12T20:43:26.199Z,99450.44
2018-05-12T20:45:55.443Z,99455.58
2018-05-12T20:48:25.511Z,99450.27
2018-05-12T20:50:54.737Z,99460.52
2018-05-12T20:53:23.988Z,99450.70
2018-05-12T20:55:53.957Z,99459.76
2018-05-12T20:58:23.175Z,99453.25
2018-05-12T21:00:52.410Z,99448.36
2018-05-12T21:03:21.646Z,99452.08
2018-05-12T21:05:50.905Z,99454.84
2018-05-12T21:08:20.326Z,99456.22
2018-05-12T21:10:49.563Z,99453.67
2018-05-12T21:13:18.776Z,99452.85
2018-05-12T21:15:48.777Z,99449.71
2018-05-12T21:18:17.995Z,99450.87
2018-05-12T21:20:47.221Z,99451.85
2018-05-12T21:23:16.455Z,99449.89
2018-05-12T21:25:45.791Z,99443.81
2018-05-12T21:28:14.995Z,99449.50
2018-05-12T21:30:44.235Z,99460.09
2018-05-12T21:33:13.483Z,99450.25
2018-05-12T21:35:43.491Z,99451.02
2018-05-12T21:38:12.704Z,99447.66
2018-05-12T21:40:41.966Z,99447.10
2018-05-12T21:43:11.165Z,99447.86
2018-05-12T21:45:40.387Z,99444.51
2018-05-12T21:48:09.610Z,99446.47
2018-05-12T21:50:39.598Z,99443.92
2018-05-12T21:53:08.830Z,99448.44
2018-05-12T21:55:38.077Z,99443.53
2018-05-12T21:58:07.294Z,99440.77
2018-05-12T22:00:37.288Z,99438.39
2018-05-12T22:03:06.520Z,99433.88
2018-05-12T22:05:36.510Z,99431.52
2018-05-12T22:08:05.734Z,99421.48
2018-05-12T22:10:34.945Z,99419.31
2018-05-12T22:13:04.172Z,99414.97
2018-05-12T22:15:33.417Z,99410.03
2018-05-12T22:18:03.397Z,99410.40
2018-05-12T22:20:32.626Z,99413.93
2018-05-12T22:23:02.678Z,99408.22
2018-05-12T22:25:32.619Z,99409.00
2018-05-12T22:28:01.953Z,99401.91
2018-05-12T22:30:31.184Z,99408.58
2018-05-12T22:33:00.409Z,99406.39
2018-05-12T22:35:29.618Z,99408.52
2018-05-12T22:37:58.890Z,99409.30
2018-05-12T22:40:34.989Z,99408.91
2018-05-12T22:43:04.239Z,99400.86
2018-05-12T22:45:33.494Z,99400.83
2018-05-12T22:48:02.740Z,99407.11
2018-05-12T22:50:32.002Z,99400.44
2018-05-12T22:53:02.011Z,99398.87
2018-05-12T22:55:32.081Z,99397.47
2018-05-12T22:58:01.322Z,99398.05
2018-05-12T23:00:32.275Z,99393.54
2018-05-12T23:03:01.504Z,99389.59
2018-05-12T23:05:30.762Z,99388.41
2018-05-12T23:08:01.166Z,99382.33
2018-05-12T23:10:31.396Z,99388.97
2018-05-12T23:13:00.622Z,99385.23
2018-05-12T23:15:30.624Z,99385.83
2018-05-12T23:17:59.883Z,99378.73
2018-05-12T23:20:29.122Z,99374.61
2018-05-12T23:22:58.413Z,99371.24
2018-05-12T23:25:27.629Z,99372.97
2018-05-12T23:27:57.650Z,99366.69
2018-05-12T23:30:27.695Z,99366.66
2018-05-12T23:32:56.951Z,99364.48
2018-05-12T23:35:26.219Z,99363.08
2018-05-12T23:37:55.481Z,99365.42
2018-05-12T23:40:24.801Z,99362.80
2018-05-12T23:42:54.025Z,99359.83
2018-05-12T23:45:23.297Z,99359.22
2018-05-12T23:47:52.545Z,99360.75
2018-05-12T23:50:22.698Z,99354.09
2018-05-12T23:52:51.919Z,99352.67
2018-05-12T23:55:22.072Z,99344.25
2018-05-12T23:57:51.285Z,99350.31
